Time;durP1;ratioP1;P1;durP2;ratioP2;P2;SDS_P1;SDS_P2;PMS_P1;PMS_P2;Temp;Humidity;BMP_temperature;BMP_pressure;BME280_temperature;BME280_humidity;BME280_pressure;Samples;Min_cycle;Max_cycle;Signal;HPM_P1;HPM_P2
2021/06/27 00:00:37;;;;;;;8.07;7.28;;;16.40;99.90;;;;;;6302951;28;20036;-82
2021/06/27 00:03:38;;;;;;;15.05;7.95;;;16.30;99.90;;;;;;6285647;28;20028;-82
2021/06/27 00:06:38;;;;;;;9.98;7.28;;;16.30;99.90;;;;;;6285741;28;20024;-83
2021/06/27 00:09:40;;;;;;;7.95;7.05;;;16.20;99.90;;;;;;6291969;28;20028;-83
2021/06/27 00:12:41;;;;;;;11.45;6.72;;;16.10;99.90;;;;;;6302666;28;20119;-82
2021/06/27 00:15:48;;;;;;;7.18;6.30;;;16.30;99.90;;;;;;6301774;28;20127;-82
2021/06/27 00:18:48;;;;;;;7.53;6.75;;;16.10;99.90;;;;;;6285577;28;20032;-82
2021/06/27 00:21:49;;;;;;;7.80;6.53;;;16.00;99.90;;;;;;6302407;28;20114;-83
2021/06/27 00:24:50;;;;;;;11.30;6.13;;;;;;;;;;6302326;28;20016;-82
2021/06/27 00:27:51;;;;;;;9.20;6.47;;;16.20;99.90;;;;;;6318786;28;20035;-82
2021/06/27 00:30:53;;;;;;;9.85;6.68;;;16.30;99.90;;;;;;6285053;28;20044;-83
2021/06/27 00:33:54;;;;;;;12.02;7.10;;;15.90;99.90;;;;;;6318577;28;20020;-82
2021/06/27 00:36:54;;;;;;;9.82;6.75;;;16.20;99.90;;;;;;6301439;28;20424;-82
2021/06/27 00:39:55;;;;;;;8.10;6.63;;;16.10;99.90;;;;;;6319967;28;20454;-82
2021/06/27 00:42:56;;;;;;;8.85;6.43;;;;;;;;;;6318227;28;20051;-81
2021/06/27 00:45:57;;;;;;;10.73;6.97;;;16.00;99.90;;;;;;6284952;28;20071;-82
2021/06/27 00:48:57;;;;;;;9.80;7.30;;;15.90;99.90;;;;;;6301469;28;20027;-83
2021/06/27 00:51:58;;;;;;;6.88;6.18;;;15.90;99.90;;;;;;6284725;28;20057;-82
2021/06/27 00:54:59;;;;;;;8.68;7.45;;;15.90;99.90;;;;;;6284772;28;20028;-83
2021/06/27 00:57:59;;;;;;;8.20;6.70;;;15.90;99.90;;;;;;6284889;28;20031;-82
2021/06/27 01:01:01;;;;;;;7.13;6.43;;;15.90;99.90;;;;;;6301557;28;20027;-82
2021/06/27 01:04:01;;;;;;;10.50;6.38;;;16.00;99.90;;;;;;6318123;28;20027;-82
2021/06/27 01:07:02;;;;;;;6.80;6.20;;;;;;;;;;6317830;28;20042;-82
2021/06/27 01:10:03;;;;;;;8.85;6.70;;;15.90;99.90;;;;;;6318974;28;20028;-82
2021/06/27 01:13:04;;;;;;;8.15;6.68;;;16.10;99.90;;;;;;6284451;28;20032;-82
2021/06/27 01:16:05;;;;;;;7.30;6.53;;;16.20;99.90;;;;;;6300353;28;20059;-81
2021/06/27 01:19:06;;;;;;;7.00;6.30;;;16.40;99.90;;;;;;6300943;28;20062;-81
2021/06/27 01:22:06;;;;;;;8.23;6.55;;;16.20;99.90;;;;;;6300671;28;20031;-81
2021/06/27 01:25:08;;;;;;;6.57;5.88;;;16.30;99.90;;;;;;6317020;28;20445;-81
2021/06/27 01:28:09;;;;;;;10.40;6.57;;;;;;;;;;6317440;28;20028;-81
2021/06/27 01:31:10;;;;;;;8.68;6.85;;;16.50;99.90;;;;;;6317272;28;20453;-81
2021/06/27 01:34:11;;;;;;;7.70;6.55;;;16.60;99.90;;;;;;6283908;28;20122;-82
2021/06/27 01:37:12;;;;;;;8.70;7.43;;;16.30;99.90;;;;;;6300170;28;20454;-82
2021/06/27 01:40:15;;;;;;;8.90;6.90;;;16.50;99.90;;;;;;6317119;28;20020;-81
2021/06/27 01:43:18;;;;;;;7.85;6.47;;;16.30;99.90;;;;;;6300397;28;20149;-82
2021/06/27 01:46:19;;;;;;;12.13;7.55;;;17.00;99.90;;;;;;6300269;28;20016;-81
2021/06/27 01:49:19;;;;;;;8.07;6.55;;;16.40;99.90;;;;;;6300140;28;20050;-81
2021/06/27 01:52:20;;;;;;;8.20;6.75;;;17.10;99.90;;;;;;6317322;28;20028;-81
2021/06/27 01:55:21;;;;;;;7.55;6.55;;;16.40;99.90;;;;;;6300097;28;20040;-81
2021/06/27 01:58:21;;;;;;;11.80;7.10;;;16.30;99.90;;;;;;6300107;28;20125;-81
2021/06/27 02:01:25;;;;;;;7.35;6.53;;;16.20;99.90;;;;;;6316450;28;20028;-81
2021/06/27 02:04:27;;;;;;;7.80;6.32;;;16.20;99.90;;;;;;6300405;28;20537;-81
2021/06/27 02:07:28;;;;;;;7.50;6.00;;;16.20;99.90;;;;;;6283500;28;20034;-81
2021/06/27 02:10:29;;;;;;;8.68;6.85;;;;;;;;;;6316764;28;20378;-81
2021/06/27 02:13:29;;;;;;;7.00;6.20;;;16.10;99.90;;;;;;6317696;28;20032;-81
2021/06/27 02:16:30;;;;;;;11.50;7.47;;;16.10;99.90;;;;;;6317952;28;20043;-81
2021/06/27 02:19:32;;;;;;;8.77;6.82;;;16.10;99.90;;;;;;6299853;28;20107;-82
2021/06/27 02:22:33;;;;;;;8.13;6.60;;;16.00;99.90;;;;;;6283349;28;20411;-81
2021/06/27 02:25:33;;;;;;;7.47;6.75;;;16.10;99.90;;;;;;6299401;28;20035;-82
2021/06/27 02:28:34;;;;;;;8.15;7.35;;;;;;;;;;6282919;28;20028;-81
2021/06/27 02:31:35;;;;;;;8.07;6.90;;;16.10;99.90;;;;;;6316605;28;20020;-81
2021/06/27 02:34:36;;;;;;;8.90;6.18;;;16.00;99.90;;;;;;6316494;28;20039;-81
2021/06/27 02:37:37;;;;;;;6.97;6.20;;;16.00;99.90;;;;;;6303522;28;20063;-81
2021/06/27 02:40:38;;;;;;;7.47;6.70;;;16.00;99.90;;;;;;6288262;28;20131;-81
2021/06/27 02:43:39;;;;;;;8.00;6.80;;;16.40;99.90;;;;;;6288053;28;20028;-81
2021/06/27 02:46:41;;;;;;;7.13;6.43;;;16.10;99.90;;;;;;6321431;28;20081;-81
2021/06/27 02:49:43;;;;;;;7.30;6.60;;;16.10;99.90;;;;;;6287693;28;20420;-81
2021/06/27 02:52:44;;;;;;;7.22;6.50;;;16.20;99.90;;;;;;6304072;28;20484;-81
2021/06/27 02:55:45;;;;;;;8.85;6.65;;;15.20;99.90;;;;;;6304289;28;20093;-80
2021/06/27 02:58:47;;;;;;;6.97;6.27;;;15.90;99.90;;;;;;6287405;28;20027;-80
2021/06/27 03:01:48;;;;;;;8.10;6.57;;;15.80;99.90;;;;;;6304350;28;20016;-80
2021/06/27 03:04:48;;;;;;;7.80;6.95;;;15.80;99.90;;;;;;6320670;28;20043;-81
2021/06/27 03:07:49;;;;;;;9.35;6.78;;;15.70;99.90;;;;;;6321187;28;20442;-81
2021/06/27 03:10:49;;;;;;;9.55;6.70;;;15.40;99.90;;;;;;6303727;28;20078;-80
2021/06/27 03:13:50;;;;;;;7.45;6.65;;;15.50;99.90;;;;;;6303792;28;20055;-81
2021/06/27 03:16:51;;;;;;;11.30;7.35;;;15.50;99.90;;;;;;6320862;28;20401;-81
2021/06/27 03:19:51;;;;;;;8.40;6.82;;;15.50;99.90;;;;;;6303544;28;20031;-80
2021/06/27 03:22:52;;;;;;;8.43;7.10;;;15.30;99.90;;;;;;6303535;28;20018;-80
2021/06/27 03:25:53;;;;;;;7.55;6.68;;;15.50;99.90;;;;;;6320392;28;20107;-80
2021/06/27 03:28:54;;;;;;;8.70;7.03;;;15.90;99.90;;;;;;6286904;28;20028;-80
2021/06/27 03:31:54;;;;;;;8.77;6.82;;;15.60;99.90;;;;;;6320121;28;20089;-80
2021/06/27 03:34:55;;;;;;;7.68;6.55;;;15.70;99.90;;;;;;6320430;28;20036;-80
2021/06/27 03:41:20;;;;;;;8.05;6.30;;;16.10;99.90;;;;;;6306034;28;20023;-80
2021/06/27 03:44:22;;;;;;;8.38;6.55;;;16.10;99.90;;;;;;6320398;28;20048;-80
2021/06/27 03:47:24;;;;;;;7.47;6.57;;;15.90;99.90;;;;;;6303097;28;20024;-80
2021/06/27 03:50:24;;;;;;;7.43;6.63;;;15.90;99.90;;;;;;6320103;28;20184;-80
2021/06/27 03:53:25;;;;;;;9.23;7.05;;;16.00;99.90;;;;;;6303214;28;20045;-80
2021/06/27 03:56:26;;;;;;;9.80;6.43;;;15.90;99.90;;;;;;6302776;28;20051;-81
2021/06/27 03:59:26;;;;;;;6.85;6.25;;;15.80;99.90;;;;;;6302756;28;20031;-81
2021/06/27 04:02:27;;;;;;;12.20;7.35;;;15.80;99.90;;;;;;6336704;28;20115;-81
2021/06/27 04:05:27;;;;;;;8.23;6.55;;;15.80;99.90;;;;;;6319834;28;20028;-80
2021/06/27 04:08:28;;;;;;;7.40;6.70;;;15.90;99.90;;;;;;6302837;28;20035;-80
2021/06/27 04:11:28;;;;;;;8.48;7.57;;;15.90;99.90;;;;;;6319610;28;20036;-80
2021/06/27 04:14:29;;;;;;;7.95;7.20;;;;;;;;;;6319546;28;20408;-80
2021/06/27 04:17:30;;;;;;;7.85;6.47;;;16.10;99.90;;;;;;6320484;28;20028;-80
2021/06/27 04:20:31;;;;;;;7.72;6.55;;;16.00;99.90;;;;;;6320779;28;20028;-80
2021/06/27 04:23:32;;;;;;;8.27;6.68;;;16.10;99.90;;;;;;6302395;28;20039;-80
2021/06/27 04:26:33;;;;;;;10.23;6.97;;;16.10;99.90;;;;;;6320745;28;20377;-80
2021/06/27 04:29:33;;;;;;;7.30;6.43;;;16.20;99.90;;;;;;6302431;28;20024;-80
2021/06/27 04:32:34;;;;;;;8.05;7.13;;;16.30;99.90;;;;;;6285281;28;20032;-80
2021/06/27 04:35:36;;;;;;;6.90;6.20;;;16.30;99.90;;;;;;6302588;28;20043;-80
2021/06/27 04:38:37;;;;;;;8.30;6.97;;;16.50;99.90;;;;;;6285497;28;20059;-80
2021/06/27 04:41:37;;;;;;;10.32;7.75;;;16.50;99.90;;;;;;6320276;28;20404;-80
2021/06/27 04:44:38;;;;;;;10.77;8.02;;;16.70;99.90;;;;;;6318555;28;20024;-80
2021/06/27 04:47:39;;;;;;;9.30;8.27;;;16.40;99.90;;;;;;6285360;28;20108;-80
2021/06/27 04:50:39;;;;;;;10.90;8.68;;;16.40;99.90;;;;;;6285567;28;20028;-80
2021/06/27 04:53:40;;;;;;;10.98;8.68;;;16.40;99.90;;;;;;6319802;28;20446;-80
2021/06/27 04:56:40;;;;;;;10.40;7.95;;;16.70;99.90;;;;;;6320061;28;20031;-80
2021/06/27 04:59:41;;;;;;;12.70;8.57;;;16.60;99.90;;;;;;6318668;28;20043;-80
2021/06/27 05:02:41;;;;;;;16.65;10.40;;;16.90;99.90;;;;;;6318401;28;20066;-80
2021/06/27 05:05:42;;;;;;;11.05;9.30;;;17.00;99.90;;;;;;6284698;28;20024;-80
2021/06/27 05:08:43;;;;;;;10.95;8.60;;;17.30;99.90;;;;;;6284583;28;20059;-80
2021/06/27 05:11:44;;;;;;;12.15;9.15;;;17.80;99.90;;;;;;6318296;28;20396;-80
2021/06/27 05:14:44;;;;;;;9.65;8.13;;;17.60;99.90;;;;;;6300973;28;20538;-80
2021/06/27 05:17:45;;;;;;;9.68;7.80;;;;;;;;;;6301197;28;20137;-80
2021/06/27 05:20:49;;;;;;;9.45;7.43;;;18.00;99.90;;;;;;6299452;28;20065;-81
2021/06/27 05:23:50;;;;;;;8.98;7.53;;;18.40;99.90;;;;;;6301055;28;20028;-81
2021/06/27 05:26:51;;;;;;;7.85;7.05;;;;;;;;;;6317900;28;20524;-80
2021/06/27 05:29:52;;;;;;;8.05;7.25;;;;;;;;;;6284759;28;20106;-81
2021/06/27 05:32:52;;;;;;;7.90;6.53;;;20.80;99.90;;;;;;6317705;28;20031;-81
2021/06/27 05:35:53;;;;;;;7.53;6.70;;;;;;;;;;6317526;28;20032;-80
2021/06/27 05:38:54;;;;;;;8.52;6.70;;;22.10;99.90;;;;;;6317355;28;20516;-80
2021/06/27 05:41:55;;;;;;;8.80;6.32;;;;;;;;;;6317951;28;20615;-80
2021/06/27 05:44:56;;;;;;;7.20;6.22;;;22.50;99.90;;;;;;6317648;28;20026;-79
2021/06/27 05:47:56;;;;;;;7.10;6.35;;;23.30;98.40;;;;;;6317811;28;20588;-80
2021/06/27 05:50:57;;;;;;;7.88;5.82;;;23.50;97.60;;;;;;6300479;28;20039;-80
2021/06/27 05:53:57;;;;;;;5.53;4.90;;;24.00;96.60;;;;;;6317236;28;20525;-80
2021/06/27 05:56:58;;;;;;;6.90;5.75;;;24.50;96.20;;;;;;6300381;28;20103;-81
2021/06/27 05:59:58;;;;;;;6.75;5.30;;;24.70;95.80;;;;;;6317284;28;20035;-80
2021/06/27 06:02:59;;;;;;;6.32;5.15;;;24.90;93.20;;;;;;6317228;28;20028;-81
2021/06/27 06:06:00;;;;;;;6.35;5.28;;;25.10;99.90;;;;;;6299778;28;20462;-81
2021/06/27 06:09:00;;;;;;;5.50;5.00;;;25.00;92.60;;;;;;6283474;28;20122;-82
2021/06/27 06:12:01;;;;;;;6.67;5.57;;;25.10;93.00;;;;;;6300065;28;20402;-82
2021/06/27 06:15:02;;;;;;;6.73;5.53;;;25.50;91.70;;;;;;6316687;28;20174;-82
2021/06/27 06:18:03;;;;;;;6.33;5.73;;;;;;;;;;6283541;28;20023;-82
2021/06/27 06:21:03;;;;;;;7.40;6.07;;;26.20;90.20;;;;;;6317909;28;20610;-82
2021/06/27 06:24:05;;;;;;;6.90;6.20;;;26.50;90.10;;;;;;6316367;28;20576;-84
2021/06/27 06:27:05;;;;;;;6.10;5.50;;;27.00;90.00;;;;;;6282864;28;20032;-85
2021/06/27 06:30:07;;;;;;;5.70;5.20;;;26.90;88.40;;;;;;6283298;28;20085;-85
2021/06/27 06:33:10;;;;;;;5.65;5.05;;;27.40;95.40;;;;;;6282888;28;20733;-86
2021/06/27 06:36:11;;;;;;;7.75;6.18;;;27.30;86.40;;;;;;6300561;28;20070;-83
2021/06/27 06:39:11;;;;;;;7.80;5.67;;;27.50;87.00;;;;;;6283537;28;20357;-86
2021/06/27 06:42:12;;;;;;;6.53;5.90;;;;;;;;;;6283359;28;20081;-86
2021/06/27 06:45:13;;;;;;;6.47;5.80;;;26.40;89.60;;;;;;6283866;28;20019;-79
2021/06/27 06:48:14;;;;;;;7.07;6.30;;;26.30;91.50;;;;;;6282925;28;20294;-79
2021/06/27 06:51:16;;;;;;;6.97;6.37;;;26.70;91.60;;;;;;6299940;28;20366;-79
2021/06/27 06:54:17;;;;;;;6.28;5.68;;;27.40;90.90;;;;;;6316489;28;20024;-80
2021/06/27 06:57:17;;;;;;;6.17;5.60;;;27.70;90.00;;;;;;6316362;28;20062;-82
2021/06/27 07:00:18;;;;;;;6.47;5.80;;;28.00;90.40;;;;;;6316141;28;20096;-83
2021/06/27 07:03:19;;;;;;;6.80;5.80;;;28.50;89.30;;;;;;6282922;28;20077;-82
2021/06/27 07:06:22;;;;;;;6.30;5.70;;;29.00;85.40;;;;;;6316188;28;20024;-83
2021/06/27 07:09:22;;;;;;;7.68;5.82;;;29.60;85.10;;;;;;6317876;28;20059;-80
2021/06/27 07:12:23;;;;;;;6.60;5.97;;;29.90;82.70;;;;;;6317407;28;20016;-81
2021/06/27 07:15:24;;;;;;;6.50;5.67;;;30.40;79.30;;;;;;6315753;28;20052;-82
2021/06/27 07:18:24;;;;;;;5.97;5.40;;;30.60;77.50;;;;;;6316370;28;20039;-82
2021/06/27 07:21:28;;;;;;;5.63;5.13;;;30.70;75.50;;;;;;6300855;28;20042;-82
2021/06/27 07:24:29;;;;;;;7.20;5.15;;;30.30;90.80;;;;;;6287614;28;20078;-80
2021/06/27 07:27:33;;;;;;;8.77;4.87;;;29.80;76.20;;;;;;6322292;28;20032;-83
2021/06/27 07:30:34;;;;;;;5.68;4.60;;;30.50;74.90;;;;;;6291099;28;20047;-83
2021/06/27 07:33:35;;;;;;;5.33;4.77;;;30.70;73.50;;;;;;6303180;28;20346;-80
2021/06/27 07:36:35;;;;;;;5.70;5.20;;;30.80;72.90;;;;;;6320335;28;20107;-82
2021/06/27 07:39:36;;;;;;;6.13;5.50;;;31.00;72.90;;;;;;6321816;28;20046;-82
2021/06/27 07:42:36;;;;;;;5.57;5.07;;;31.00;73.40;;;;;;6320508;28;20051;-77
2021/06/27 07:45:37;;;;;;;5.93;5.33;;;31.10;72.20;;;;;;6303219;28;20458;-77
2021/06/27 07:48:37;;;;;;;7.53;5.37;;;31.20;71.90;;;;;;6303566;28;20027;-77
2021/06/27 07:51:38;;;;;;;5.60;5.10;;;31.40;70.10;;;;;;6321803;28;20032;-82
2021/06/27 07:54:39;;;;;;;8.03;6.20;;;31.50;69.70;;;;;;6319692;28;20466;-78
2021/06/27 07:57:40;;;;;;;6.37;5.47;;;31.60;70.10;;;;;;6303295;28;20028;-78
2021/06/27 08:00:40;;;;;;;6.40;5.70;;;31.40;71.90;;;;;;6302777;28;20485;-81
2021/06/27 08:03:41;;;;;;;7.53;5.90;;;31.50;70.30;;;;;;6321114;28;20024;-79
2021/06/27 08:06:42;;;;;;;7.27;6.63;;;31.10;86.80;;;;;;6321375;28;20061;-78
2021/06/27 08:09:42;;;;;;;7.67;6.83;;;31.30;70.80;;;;;;6302784;28;20020;-78
2021/06/27 08:12:43;;;;;;;6.43;5.83;;;31.30;70.60;;;;;;6285889;28;20051;-78
2021/06/27 08:15:43;;;;;;;7.23;6.53;;;31.40;71.40;;;;;;6302388;28;20058;-77
2021/06/27 08:18:44;;;;;;;8.10;7.40;;;31.50;71.40;;;;;;6302448;28;20028;-80
2021/06/27 08:21:45;;;;;;;7.20;6.50;;;31.60;71.20;;;;;;6319285;28;20039;-78
2021/06/27 08:24:45;;;;;;;7.10;6.23;;;31.40;71.10;;;;;;6302206;28;20302;-78
2021/06/27 08:27:46;;;;;;;9.23;6.10;;;31.70;71.90;;;;;;6285572;28;20040;-79
2021/06/27 08:30:47;;;;;;;6.90;6.30;;;31.70;71.60;;;;;;6302257;28;20032;-78
2021/06/27 08:33:51;;;;;;;6.17;5.67;;;31.80;69.60;;;;;;6320110;28;20039;-79
2021/06/27 08:36:51;;;;;;;7.68;5.57;;;32.10;69.30;;;;;;6285703;28;20418;-81
2021/06/27 08:39:52;;;;;;;7.80;6.00;;;32.40;68.70;;;;;;6285125;28;20435;-80
2021/06/27 08:42:53;;;;;;;6.63;6.03;;;32.40;68.00;;;;;;6319823;28;20028;-78
2021/06/27 08:45:53;;;;;;;6.65;6.05;;;32.70;67.60;;;;;;6319812;28;20039;-78
2021/06/27 08:48:54;;;;;;;6.30;5.63;;;32.70;66.20;;;;;;6318033;28;20020;-78
2021/06/27 08:51:55;;;;;;;5.90;5.30;;;32.10;66.90;;;;;;6318242;28;20330;-78
2021/06/27 08:54:56;;;;;;;7.25;5.93;;;31.90;68.60;;;;;;6318123;28;20776;-80
2021/06/27 08:57:56;;;;;;;6.83;6.13;;;32.00;91.90;;;;;;6284834;28;20063;-83
2021/06/27 09:00:58;;;;;;;5.82;5.25;;;31.80;69.80;;;;;;6284589;28;20270;-79
2021/06/27 09:03:59;;;;;;;5.93;5.38;;;31.30;67.00;;;;;;6318350;28;20024;-79
2021/06/27 09:07:29;;;;;;;7.43;6.82;;;31.40;77.10;;;;;;6317990;28;20028;-79
2021/06/27 09:10:29;;;;;;;7.03;6.30;;;31.40;68.30;;;;;;6318114;28;20035;-78
2021/06/27 09:13:48;;;;;;;7.03;6.28;;;31.80;75.60;;;;;;6318846;28;20036;-81
2021/06/27 09:17:04;;;;;;;7.22;6.53;;;31.90;68.90;;;;;;6301426;28;20126;-81
2021/06/27 09:20:07;;;;;;;6.97;6.28;;;32.10;68.30;;;;;;6302009;28;20062;-79
2021/06/27 09:23:08;;;;;;;7.20;5.55;;;32.30;66.20;;;;;;6317872;28;20032;-78
2021/06/27 09:26:09;;;;;;;6.93;6.18;;;32.00;64.70;;;;;;6301173;28;20031;-78
2021/06/27 09:29:10;;;;;;;6.00;5.50;;;31.90;64.60;;;;;;6300618;28;20113;-78
2021/06/27 09:32:17;;;;;;;6.97;6.37;;;31.60;64.70;;;;;;6299640;28;20044;-78
2021/06/27 09:35:35;;;;;;;7.50;6.32;;;31.60;65.70;;;;;;6284136;28;20043;-77
2021/06/27 09:38:44;;;;;;;6.75;6.15;;;31.90;67.80;;;;;;6285207;28;20021;-77
2021/06/27 09:41:47;;;;;;;7.20;6.50;;;31.90;65.90;;;;;;6317482;28;20036;-77
2021/06/27 09:45:04;;;;;;;7.60;6.90;;;32.30;67.60;;;;;;6316735;28;20051;-77
2021/06/27 09:48:05;;;;;;;8.43;7.05;;;32.70;75.10;;;;;;6317004;28;20024;-80
2021/06/27 09:51:11;;;;;;;;;;;32.50;74.90;;;;;;6316229;28;20416;-78
2021/06/27 09:54:13;;;;;;;6.95;6.07;;;32.90;67.20;;;;;;6317282;28;20269;-77
2021/06/27 09:57:20;;;;;;;6.85;6.35;;;33.30;65.70;;;;;;6283176;28;20070;-79
2021/06/27 10:00:29;;;;;;;6.43;5.82;;;33.50;74.40;;;;;;6316027;28;20039;-77
2021/06/27 10:03:43;;;;;;;6.95;6.32;;;33.70;73.80;;;;;;6318152;28;20024;-77
2021/06/27 10:06:50;;;;;;;7.53;6.82;;;33.40;72.80;;;;;;6318315;28;20028;-77
2021/06/27 10:09:51;;;;;;;6.78;6.18;;;33.40;70.00;;;;;;6316529;28;20021;-77
2021/06/27 10:12:52;;;;;;;6.63;5.93;;;33.20;73.00;;;;;;6317565;28;20078;-77
2021/06/27 10:15:52;;;;;;;6.63;6.03;;;33.20;63.80;;;;;;6317014;28;20470;-78
2021/06/27 10:18:53;;;;;;;8.43;5.80;;;33.20;62.20;;;;;;6315923;28;20047;-77
2021/06/27 10:21:54;;;;;;;6.50;5.90;;;33.40;63.10;;;;;;6299481;28;20024;-77
2021/06/27 10:24:55;;;;;;;7.13;6.53;;;33.30;63.30;;;;;;6296283;28;20042;-78
2021/06/27 10:27:56;;;;;;;6.93;6.32;;;33.30;64.60;;;;;;6295214;28;20048;-77
2021/06/27 10:30:56;;;;;;;6.57;5.88;;;33.10;63.90;;;;;;6299305;28;20113;-77
2021/06/27 10:33:57;;;;;;;6.82;6.18;;;33.00;64.60;;;;;;6316483;28;20024;-80
2021/06/27 10:37:07;;;;;;;6.70;6.10;;;33.20;63.80;;;;;;6319821;28;20028;-80
2021/06/27 10:40:08;;;;;;;6.57;5.97;;;33.30;65.10;;;;;;6316635;28;20016;-81
2021/06/27 10:43:08;;;;;;;6.78;5.93;;;33.40;63.60;;;;;;6317331;28;20112;-79
2021/06/27 10:46:10;;;;;;;6.63;6.03;;;33.50;64.00;;;;;;6316534;28;20388;-82
2021/06/27 10:53:00;;;;;;;7.15;5.97;;;33.30;64.10;;;;;;6319157;28;20029;-79
2021/06/27 10:56:03;;;;;;;6.15;5.55;;;33.20;65.60;;;;;;6299841;28;20052;-80
2021/06/27 10:59:04;;;;;;;8.63;5.85;;;32.90;64.90;;;;;;6320868;28;20093;-79
2021/06/27 11:02:18;;;;;;;6.22;5.63;;;32.20;64.10;;;;;;6320855;28;20024;-82
2021/06/27 11:05:35;;;;;;;6.15;5.55;;;31.70;65.10;;;;;;6321073;28;20032;-79
2021/06/27 11:08:36;;;;;;;6.68;6.00;;;31.30;66.40;;;;;;6318874;28;20030;-79
2021/06/27 11:11:53;;;;;;;6.90;6.30;;;30.90;67.00;;;;;;6304513;28;20036;-81
2021/06/27 11:15:13;;;;;;;6.40;5.80;;;30.70;68.10;;;;;;6320105;28;20062;-84
2021/06/27 11:18:30;;;;;;;6.38;5.82;;;30.70;69.40;;;;;;6302905;28;20023;-79
2021/06/27 11:21:35;;;;;;;6.50;5.90;;;30.90;68.70;;;;;;6320636;28;20024;-80
2021/06/27 11:24:36;;;;;;;8.30;6.13;;;31.20;69.00;;;;;;6302839;28;20064;-79
2021/06/27 11:27:37;;;;;;;8.73;6.23;;;31.50;69.40;;;;;;6320185;28;20023;-79
2021/06/27 11:30:38;;;;;;;6.18;5.60;;;32.00;67.10;;;;;;6318988;28;20599;-80
2021/06/27 11:33:39;;;;;;;6.43;5.60;;;32.10;66.90;;;;;;6318893;28;20028;-79
2021/06/27 11:36:39;;;;;;;6.78;6.10;;;32.20;65.20;;;;;;6302938;28;20419;-79
2021/06/27 11:39:47;;;;;;;7.17;5.57;;;32.00;67.90;;;;;;6319584;28;20020;-81
2021/06/27 11:42:47;;;;;;;6.70;6.10;;;32.10;67.00;;;;;;6321043;28;20277;-83
2021/06/27 11:45:49;;;;;;;6.55;5.95;;;32.20;65.20;;;;;;6286052;28;20109;-82
2021/06/27 11:48:49;;;;;;;6.28;5.75;;;32.40;66.90;;;;;;6302205;28;20032;-81
2021/06/27 11:51:50;;;;;;;5.97;5.37;;;32.50;68.40;;;;;;6318721;28;20039;-80
2021/06/27 11:54:51;;;;;;;6.50;5.90;;;32.50;65.40;;;;;;6319177;28;20651;-81
2021/06/27 11:57:51;;;;;;;6.10;5.60;;;32.70;65.50;;;;;;6300827;28;20097;-80
2021/06/27 12:00:52;;;;;;;6.00;5.47;;;32.50;65.90;;;;;;6300566;28;20031;-81
2021/06/27 12:03:53;;;;;;;7.05;6.35;;;32.10;66.20;;;;;;6300789;28;20064;-81
2021/06/27 12:06:53;;;;;;;6.47;5.85;;;32.00;67.00;;;;;;6282166;28;20036;-78
2021/06/27 12:09:54;;;;;;;5.95;5.40;;;31.90;67.90;;;;;;6318139;28;20486;-81
2021/06/27 12:13:03;;;;;;;6.95;5.32;;;32.00;74.00;;;;;;6318127;28;20039;-84
2021/06/27 12:16:03;;;;;;;6.30;5.45;;;32.40;75.20;;;;;;6286467;28;20064;-79
2021/06/27 12:19:04;;;;;;;5.78;5.22;;;32.40;77.20;;;;;;6319151;28;20020;-80
2021/06/27 12:22:04;;;;;;;5.55;5.03;;;32.20;76.50;;;;;;6318843;28;20423;-80
2021/06/27 12:25:06;;;;;;;5.85;5.25;;;31.90;76.70;;;;;;6284997;28;20136;-81
2021/06/27 12:28:12;;;;;;;5.97;4.95;;;31.70;78.20;;;;;;6298921;28;20217;-80
2021/06/27 12:31:18;;;;;;;5.82;5.32;;;31.70;69.20;;;;;;6300571;28;20063;-78
2021/06/27 12:34:19;;;;;;;5.10;4.70;;;31.60;72.20;;;;;;6300489;28;20040;-79
2021/06/27 12:37:20;;;;;;;5.70;5.13;;;31.20;70.50;;;;;;6284843;28;20012;-80
2021/06/27 12:40:20;;;;;;;5.40;4.90;;;30.50;72.80;;;;;;6285330;28;20435;-79
2021/06/27 12:43:22;;;;;;;6.10;5.50;;;30.50;71.30;;;;;;6301419;28;20028;-79
2021/06/27 12:46:27;;;;;;;6.05;5.55;;;29.90;72.10;;;;;;6318327;28;20462;-80
2021/06/27 12:49:31;;;;;;;5.82;5.32;;;29.40;73.60;;;;;;6284762;28;20032;-79
2021/06/27 12:52:32;;;;;;;6.10;5.57;;;29.30;74.40;;;;;;6300683;28;20123;-82
2021/06/27 12:55:33;;;;;;;6.10;5.03;;;29.00;74.80;;;;;;6298500;28;20081;-80
2021/06/27 12:59:00;;;;;;;6.13;5.32;;;28.90;75.30;;;;;;6300209;28;20118;-80
2021/06/27 13:02:11;;;;;;;8.43;5.20;;;28.80;75.00;;;;;;6298927;28;20035;-80
2021/06/27 13:05:12;;;;;;;;;;;28.50;75.40;;;;;;6302437;28;20481;-80
2021/06/27 13:08:16;;;;;;;7.07;5.37;;;28.40;75.80;;;;;;6318180;28;19908;-81
2021/06/27 13:11:17;;;;;;;5.97;5.47;;;28.20;77.90;;;;;;6301733;28;20032;-81
2021/06/27 13:14:24;;;;;;;6.47;5.47;;;28.20;78.50;;;;;;6300420;28;20078;-81
2021/06/27 13:17:25;;;;;;;5.78;5.28;;;28.30;78.20;;;;;;6317735;28;20464;-81
2021/06/27 13:20:47;;;;;;;7.60;5.37;;;28.30;78.70;;;;;;6316806;28;20020;-81
2021/06/27 13:23:51;;;;;;;6.72;5.22;;;28.40;78.50;;;;;;6316519;28;20062;-84
2021/06/27 13:26:52;;;;;;;5.57;4.55;;;28.40;78.40;;;;;;6301113;28;20081;-81
2021/06/27 13:30:07;;;;;;;7.53;6.03;;;28.70;77.00;;;;;;6318848;28;20406;-81
2021/06/27 13:33:08;;;;;;;5.80;5.30;;;28.90;74.70;;;;;;6301074;28;20450;-82
2021/06/27 13:36:30;;;;;;;6.15;5.55;;;29.10;76.40;;;;;;6316911;28;20031;-84
2021/06/27 13:39:31;;;;;;;5.85;5.25;;;29.30;73.90;;;;;;6317058;28;20028;-82
2021/06/27 13:42:32;;;;;;;6.20;5.10;;;29.30;74.50;;;;;;6315894;28;20031;-80
2021/06/27 13:45:32;;;;;;;7.00;5.13;;;29.30;73.40;;;;;;6315365;28;20039;-80
2021/06/27 13:48:33;;;;;;;5.87;5.37;;;29.20;72.90;;;;;;6316968;28;20056;-80
2021/06/27 13:51:33;;;;;;;6.17;5.63;;;29.10;72.00;;;;;;6317215;28;20028;-80
2021/06/27 13:54:34;;;;;;;5.27;4.87;;;28.90;71.30;;;;;;6315646;28;20268;-79
2021/06/27 13:57:35;;;;;;;5.63;5.13;;;28.70;71.70;;;;;;6317057;28;20465;-79
2021/06/27 14:00:35;;;;;;;6.20;4.90;;;28.60;72.30;;;;;;6315422;28;20415;-79
2021/06/27 14:03:36;;;;;;;5.87;5.27;;;28.50;74.40;;;;;;6281646;28;20106;-79
2021/06/27 14:06:36;;;;;;;5.80;5.30;;;28.40;72.40;;;;;;6298394;28;20038;-81
2021/06/27 14:09:37;;;;;;;5.67;5.17;;;28.50;74.70;;;;;;6298017;28;20020;-84
2021/06/27 14:12:38;;;;;;;5.83;5.23;;;28.60;73.10;;;;;;6282138;28;20085;-80
2021/06/27 14:15:42;;;;;;;7.68;5.32;;;28.80;73.20;;;;;;6316814;28;20092;-79
2021/06/27 14:18:51;;;;;;;5.57;4.90;;;29.00;71.70;;;;;;6317084;28;20036;-79
2021/06/27 14:21:52;;;;;;;10.32;5.43;;;28.80;72.40;;;;;;6300732;28;20028;-79
2021/06/27 14:24:52;;;;;;;5.57;5.07;;;29.00;73.30;;;;;;6299803;28;20032;-80
2021/06/27 14:27:53;;;;;;;5.70;5.10;;;29.30;71.40;;;;;;6299777;28;20399;-80
2021/06/27 14:30:54;;;;;;;6.37;5.73;;;29.30;73.10;;;;;;6318264;28;20078;-81
2021/06/27 14:33:54;;;;;;;6.67;5.50;;;29.20;71.20;;;;;;6286889;28;20020;-82
2021/06/27 14:36:55;;;;;;;6.00;5.50;;;29.20;70.00;;;;;;6321644;28;20678;-81
2021/06/27 14:39:55;;;;;;;5.60;5.00;;;29.30;72.00;;;;;;6285332;28;20016;-79
2021/06/27 14:42:56;;;;;;;6.00;5.30;;;29.20;73.00;;;;;;6303572;28;20067;-81
2021/06/27 14:45:57;;;;;;;6.30;5.47;;;29.10;71.40;;;;;;6320743;28;20039;-81
2021/06/27 14:48:58;;;;;;;6.20;5.60;;;28.70;71.50;;;;;;6321299;28;20036;-81
2021/06/27 14:51:58;;;;;;;4.75;4.35;;;28.60;72.60;;;;;;6287589;28;20035;-80
2021/06/27 14:54:59;;;;;;;4.40;4.00;;;28.40;72.10;;;;;;6303900;28;20043;-80
2021/06/27 14:58:00;;;;;;;4.40;3.80;;;28.00;73.60;;;;;;6304166;28;20132;-88
2021/06/27 15:01:02;;;;;;;4.93;4.03;;;27.60;85.00;;;;;;6287802;28;20028;-81
2021/06/27 15:04:03;;;;;;;3.58;3.25;;;27.10;99.90;;;;;;6321049;28;20111;-80
2021/06/27 15:07:04;;;;;;;3.53;3.10;;;27.60;76.80;;;;;;6319980;28;20024;-79
2021/06/27 15:10:05;;;;;;;3.50;3.20;;;27.10;76.20;;;;;;6320276;28;20103;-80
2021/06/27 15:13:05;;;;;;;4.68;3.78;;;27.10;72.30;;;;;;6320495;28;20031;-80
2021/06/27 15:16:06;;;;;;;3.47;3.17;;;27.30;74.10;;;;;;6286142;28;20078;-83
2021/06/27 15:19:07;;;;;;;3.53;3.07;;;27.00;72.40;;;;;;6285484;28;20031;-80
2021/06/27 15:22:08;;;;;;;5.27;3.17;;;27.00;84.50;;;;;;6319959;28;20062;-80
2021/06/27 15:25:09;;;;;;;3.35;3.05;;;27.20;85.10;;;;;;6301064;28;20023;-81
2021/06/27 15:28:10;;;;;;;3.97;2.88;;;26.90;85.00;;;;;;6318630;28;20067;-81
2021/06/27 15:31:11;;;;;;;4.20;3.10;;;27.00;86.30;;;;;;6301374;28;20023;-82
2021/06/27 15:34:11;;;;;;;3.40;3.10;;;27.10;85.30;;;;;;6286292;28;20020;-80
2021/06/27 15:37:12;;;;;;;3.30;3.00;;;;;;;;;;6319601;28;20031;-80
2021/06/27 15:40:13;;;;;;;3.15;2.88;;;27.30;80.70;;;;;;6319940;28;20054;-80
2021/06/27 15:43:13;;;;;;;4.23;3.07;;;27.40;71.60;;;;;;6302688;28;20028;-83
2021/06/27 15:46:14;;;;;;;3.67;3.13;;;27.60;73.50;;;;;;6286677;28;20469;-82
2021/06/27 15:49:15;;;;;;;3.70;3.40;;;27.80;74.10;;;;;;6285648;28;20035;-81
2021/06/27 15:52:18;;;;;;;4.20;3.80;;;28.00;73.30;;;;;;6302523;28;20035;-82
2021/06/27 15:55:19;;;;;;;4.88;4.47;;;28.10;74.90;;;;;;6298910;28;20062;-86
2021/06/27 15:58:20;;;;;;;5.33;4.83;;;28.20;77.90;;;;;;6286245;28;20056;-82